Terminal Aerodrome Forecast
Issued by NWS

Home | Current Version | Previous Version | Text Only | Print | Product List | Glossary On
Versions: 1 2 3 4 5 6 7 8 9 10 11 12 13
000
FTUS43 KPAH 241100
TAFCGI
TAF
KCGI 241120Z 2412/2512 15004KT P6SM SKC
     FM241600 VRB03KT P6SM SCT030
     FM241900 08003KT P6SM VCTS SCT040CB
     FM250000 11003KT P6SM SKC
     FM250800 00000KT 4SM BR SCT012=

USA.gov is the U.S. government's official web portal to all federal, state and local government web resources and services.